sensor_id;sensor_type;location;lat;lon;timestamp;P1;durP1;ratioP1;P2;durP2;ratioP2
78167;SDS011;67410;42.698;23.378;2023-04-07T16:38:13;23.98;;;12.40;;
78167;SDS011;67410;42.698;23.378;2023-04-07T16:40:39;18.17;;;10.13;;
78167;SDS011;67410;42.698;23.378;2023-04-07T16:43:06;18.13;;;9.60;;
78167;SDS011;67410;42.698;23.378;2023-04-07T16:45:33;24.45;;;11.15;;
78167;SDS011;67410;42.698;23.378;2023-04-07T16:48:00;25.70;;;12.07;;
78167;SDS011;67410;42.698;23.378;2023-04-07T16:50:26;27.45;;;14.63;;
78167;SDS011;67410;42.698;23.378;2023-04-07T16:52:52;32.85;;;17.02;;
78167;SDS011;67410;42.698;23.378;2023-04-07T16:55:22;52.80;;;22.05;;
78167;SDS011;67410;42.698;23.378;2023-04-07T16:57:48;39.17;;;19.10;;
78167;SDS011;67410;42.698;23.378;2023-04-07T17:00:15;27.85;;;13.25;;
78167;SDS011;67410;42.698;23.378;2023-04-07T17:02:41;29.23;;;14.93;;
78167;SDS011;67410;42.698;23.378;2023-04-07T17:05:07;26.42;;;12.70;;
78167;SDS011;67410;42.698;23.378;2023-04-07T17:07:34;17.17;;;9.27;;
78167;SDS011;67410;42.698;23.378;2023-04-07T17:10:01;20.67;;;10.30;;
78167;SDS011;67410;42.698;23.378;2023-04-07T17:12:27;20.75;;;12.15;;
78167;SDS011;67410;42.698;23.378;2023-04-07T17:14:53;19.58;;;11.00;;
78167;SDS011;67410;42.698;23.378;2023-04-07T17:17:19;17.05;;;11.15;;
78167;SDS011;67410;42.698;23.378;2023-04-07T17:19:45;25.30;;;14.45;;
78167;SDS011;67410;42.698;23.378;2023-04-07T17:22:12;22.15;;;12.57;;
78167;SDS011;67410;42.698;23.378;2023-04-07T17:24:38;16.25;;;9.45;;
78167;SDS011;67410;42.698;23.378;2023-04-07T17:27:04;18.73;;;10.88;;
78167;SDS011;67410;42.698;23.378;2023-04-07T17:29:30;20.20;;;10.32;;
78167;SDS011;67410;42.698;23.378;2023-04-07T17:31:58;30.73;;;15.48;;
78167;SDS011;67410;42.698;23.378;2023-04-07T17:34:24;22.05;;;12.05;;
78167;SDS011;67410;42.698;23.378;2023-04-07T17:36:50;20.35;;;10.02;;
78167;SDS011;67410;42.698;23.378;2023-04-07T17:39:18;25.83;;;12.63;;
78167;SDS011;67410;42.698;23.378;2023-04-07T17:41:44;27.20;;;14.38;;
78167;SDS011;67410;42.698;23.378;2023-04-07T17:44:12;17.48;;;10.05;;
78167;SDS011;67410;42.698;23.378;2023-04-07T17:46:38;18.45;;;11.85;;
78167;SDS011;67410;42.698;23.378;2023-04-07T17:49:04;27.77;;;13.90;;
78167;SDS011;67410;42.698;23.378;2023-04-07T17:51:30;24.95;;;14.82;;
78167;SDS011;67410;42.698;23.378;2023-04-07T17:53:57;34.75;;;16.15;;
78167;SDS011;67410;42.698;23.378;2023-04-07T17:56:23;36.67;;;16.65;;
78167;SDS011;67410;42.698;23.378;2023-04-07T17:58:50;33.65;;;15.73;;
78167;SDS011;67410;42.698;23.378;2023-04-07T18:01:16;32.58;;;16.52;;
78167;SDS011;67410;42.698;23.378;2023-04-07T18:03:42;30.88;;;16.77;;
78167;SDS011;67410;42.698;23.378;2023-04-07T18:06:08;16.95;;;9.90;;
78167;SDS011;67410;42.698;23.378;2023-04-07T18:08:34;14.00;;;9.52;;
78167;SDS011;67410;42.698;23.378;2023-04-07T18:11:01;26.73;;;15.10;;
78167;SDS011;67410;42.698;23.378;2023-04-07T18:13:28;24.38;;;13.93;;
78167;SDS011;67410;42.698;23.378;2023-04-07T18:15:54;36.25;;;18.60;;
78167;SDS011;67410;42.698;23.378;2023-04-07T18:18:20;35.05;;;18.77;;
78167;SDS011;67410;42.698;23.378;2023-04-07T18:20:48;60.28;;;26.40;;
78167;SDS011;67410;42.698;23.378;2023-04-07T18:23:14;26.77;;;13.75;;
78167;SDS011;67410;42.698;23.378;2023-04-07T18:25:40;50.35;;;21.67;;
78167;SDS011;67410;42.698;23.378;2023-04-07T18:28:07;53.22;;;25.10;;
78167;SDS011;67410;42.698;23.378;2023-04-07T18:30:33;39.38;;;20.42;;
78167;SDS011;67410;42.698;23.378;2023-04-07T18:32:59;35.90;;;17.38;;
78167;SDS011;67410;42.698;23.378;2023-04-07T18:35:25;32.58;;;18.02;;
78167;SDS011;67410;42.698;23.378;2023-04-07T18:37:53;30.05;;;13.73;;
78167;SDS011;67410;42.698;23.378;2023-04-07T18:40:19;30.23;;;14.15;;
78167;SDS011;67410;42.698;23.378;2023-04-07T18:42:46;26.90;;;14.30;;
78167;SDS011;67410;42.698;23.378;2023-04-07T18:45:12;26.05;;;13.90;;
78167;SDS011;67410;42.698;23.378;2023-04-07T18:47:38;30.55;;;15.50;;
78167;SDS011;67410;42.698;23.378;2023-04-07T18:50:04;34.83;;;15.55;;
78167;SDS011;67410;42.698;23.378;2023-04-07T18:52:31;29.48;;;16.15;;
78167;SDS011;67410;42.698;23.378;2023-04-07T18:54:57;29.73;;;14.15;;
78167;SDS011;67410;42.698;23.378;2023-04-07T18:57:23;22.85;;;12.82;;
78167;SDS011;67410;42.698;23.378;2023-04-07T18:59:49;33.67;;;16.80;;
78167;SDS011;67410;42.698;23.378;2023-04-07T19:02:17;51.63;;;20.15;;
78167;SDS011;67410;42.698;23.378;2023-04-07T19:04:43;53.25;;;19.95;;
78167;SDS011;67410;42.698;23.378;2023-04-07T19:07:10;51.13;;;18.60;;
78167;SDS011;67410;42.698;23.378;2023-04-07T19:09:36;32.53;;;14.63;;
78167;SDS011;67410;42.698;23.378;2023-04-07T19:12:02;69.32;;;30.63;;
78167;SDS011;67410;42.698;23.378;2023-04-07T19:14:28;68.72;;;33.40;;
78167;SDS011;67410;42.698;23.378;2023-04-07T19:16:55;81.32;;;35.42;;
78167;SDS011;67410;42.698;23.378;2023-04-07T19:19:21;89.97;;;37.17;;
78167;SDS011;67410;42.698;23.378;2023-04-07T19:21:47;57.47;;;27.50;;
78167;SDS011;67410;42.698;23.378;2023-04-07T19:24:13;40.33;;;19.48;;
78167;SDS011;67410;42.698;23.378;2023-04-07T19:26:39;48.45;;;22.60;;
78167;SDS011;67410;42.698;23.378;2023-04-07T19:29:05;48.58;;;20.88;;
78167;SDS011;67410;42.698;23.378;2023-04-07T19:31:31;38.20;;;17.90;;
78167;SDS011;67410;42.698;23.378;2023-04-07T19:33:57;41.35;;;20.60;;
78167;SDS011;67410;42.698;23.378;2023-04-07T19:36:24;48.65;;;23.55;;
78167;SDS011;67410;42.698;23.378;2023-04-07T19:38:51;64.32;;;31.83;;
